createdAt,value
2023-01-02T00:01:41.166Z,10.27
2023-01-02T00:04:09.650Z,10.30
2023-01-02T00:06:39.448Z,9.70
2023-01-02T00:09:10.236Z,10.00
2023-01-02T00:11:39.441Z,9.80
2023-01-02T00:14:08.025Z,10.37
2023-01-02T00:16:36.368Z,10.40
2023-01-02T00:19:04.924Z,10.43
2023-01-02T00:21:33.261Z,11.97
2023-01-02T00:24:02.632Z,10.23
2023-01-02T00:26:32.678Z,10.20
2023-01-02T00:29:02.220Z,10.20
2023-01-02T00:31:30.709Z,10.93
2023-01-02T00:33:58.993Z,10.90
2023-01-02T00:36:27.908Z,10.23
2023-01-02T00:38:56.851Z,10.20
2023-01-02T00:41:25.564Z,10.03
2023-01-02T00:43:55.325Z,10.60
2023-01-02T00:46:23.610Z,10.07
2023-01-02T00:48:51.985Z,10.37
2023-01-02T00:51:20.340Z,10.40
2023-01-02T00:53:48.595Z,10.30
2023-01-02T00:56:16.899Z,11.27
2023-01-02T00:58:45.246Z,9.83
2023-01-02T01:01:15.043Z,9.97
2023-01-02T01:03:43.988Z,10.20
2023-01-02T01:06:12.903Z,9.87
2023-01-02T01:08:41.569Z,10.00
2023-01-02T01:11:12.134Z,10.07
2023-01-02T01:13:41.132Z,9.90
2023-01-02T01:16:12.690Z,10.83
2023-01-02T01:18:43.255Z,9.80
2023-01-02T01:21:14.050Z,10.17
2023-01-02T01:23:42.647Z,10.23
2023-01-02T01:26:14.002Z,10.03
2023-01-02T01:28:42.354Z,12.93
2023-01-02T01:31:13.411Z,10.50
2023-01-02T01:33:45.502Z,10.23
2023-01-02T01:36:16.377Z,9.80
2023-01-02T01:38:45.493Z,10.23
2023-01-02T01:41:16.454Z,12.93
2023-01-02T01:43:50.079Z,9.87
2023-01-02T01:46:26.185Z,10.00
2023-01-02T01:49:01.479Z,9.60
2023-01-02T01:51:33.747Z,9.97
2023-01-02T01:54:08.446Z,9.63
2023-01-02T01:56:40.443Z,10.10
2023-01-02T01:59:11.921Z,9.70
2023-01-02T02:01:41.768Z,9.80
2023-01-02T02:04:16.426Z,9.77
2023-01-02T02:06:45.020Z,9.43
2023-01-02T02:09:19.010Z,10.23
2023-01-02T02:11:48.094Z,9.70
2023-01-02T02:14:16.584Z,9.20
2023-01-02T02:16:58.732Z,9.70
2023-01-02T02:20:04.540Z,9.70
2023-01-02T02:23:47.347Z,9.90
2023-01-02T02:26:54.923Z,9.70
2023-01-02T02:30:09.924Z,9.23
2023-01-02T02:32:56.000Z,9.50
2023-01-02T02:35:36.082Z,9.43
2023-01-02T02:38:10.281Z,9.70
2023-01-02T02:40:51.525Z,9.53
2023-01-02T02:43:31.596Z,9.60
2023-01-02T02:46:08.926Z,10.00
2023-01-02T02:48:49.696Z,9.67
2023-01-02T02:51:22.699Z,10.00
2023-01-02T02:53:59.352Z,9.90
2023-01-02T02:56:29.712Z,9.40
2023-01-02T02:58:58.257Z,9.60
2023-01-02T03:01:31.900Z,9.73
2023-01-02T03:04:00.353Z,9.40
2023-01-02T03:06:56.310Z,9.43
2023-01-02T03:09:37.188Z,9.57
2023-01-02T03:12:19.219Z,9.40
2023-01-02T03:14:59.376Z,9.50
2023-01-02T03:17:37.541Z,9.40
2023-01-02T03:20:10.855Z,9.70
2023-01-02T03:22:43.643Z,9.70
2023-01-02T03:25:13.877Z,9.40
2023-01-02T03:27:46.370Z,9.53
2023-01-02T03:30:18.844Z,9.37
2023-01-02T03:32:54.585Z,9.23
2023-01-02T03:35:28.132Z,9.53
2023-01-02T03:37:59.776Z,9.30
2023-01-02T03:40:34.080Z,9.30
2023-01-02T03:43:07.059Z,9.30
2023-01-02T03:45:40.939Z,9.30
2023-01-02T03:48:22.721Z,9.23
2023-01-02T03:50:54.616Z,9.57
2023-01-02T03:53:23.747Z,9.30
2023-01-02T03:56:04.535Z,9.17
2023-01-02T03:58:42.906Z,9.30
2023-01-02T04:01:18.989Z,9.50
2023-01-02T04:03:54.017Z,9.20
2023-01-02T04:06:31.473Z,12.10
2023-01-02T04:09:06.823Z,9.60
2023-01-02T04:11:39.717Z,9.23
2023-01-02T04:14:17.837Z,9.50
2023-01-02T04:16:49.672Z,9.40
2023-01-02T04:19:25.037Z,9.57
2023-01-02T04:21:58.005Z,9.40
2023-01-02T04:24:32.087Z,9.60
2023-01-02T04:27:05.747Z,9.37
2023-01-02T04:29:34.231Z,9.60
2023-01-02T04:32:10.363Z,8.90
2023-01-02T04:34:42.304Z,9.20
2023-01-02T04:37:10.712Z,9.40
2023-01-02T04:39:39.998Z,9.30
2023-01-02T04:42:08.318Z,9.53
2023-01-02T04:44:36.684Z,9.73
2023-01-02T04:47:05.261Z,9.70
2023-01-02T04:49:33.511Z,9.57
2023-01-02T04:52:03.348Z,9.30
2023-01-02T04:54:31.635Z,9.30
2023-01-02T04:56:59.959Z,9.30
2023-01-02T04:59:28.345Z,9.30
2023-01-02T05:01:56.789Z,9.37
2023-01-02T05:04:25.133Z,9.70
2023-01-02T05:06:53.780Z,9.53
2023-01-02T05:09:23.396Z,9.50
2023-01-02T05:11:51.767Z,9.60
2023-01-02T05:14:20.125Z,9.63
2023-01-02T05:16:48.398Z,9.43
2023-01-02T05:19:17.069Z,9.30
2023-01-02T05:22:03.236Z,9.33
2023-01-02T05:24:32.864Z,9.53
2023-01-02T05:27:01.237Z,9.63
2023-01-02T05:29:30.496Z,9.67
2023-01-02T05:31:58.772Z,9.60
2023-01-02T05:34:27.157Z,10.57
2023-01-02T05:36:55.461Z,9.50
2023-01-02T05:39:23.740Z,12.23
2023-01-02T05:41:53.422Z,9.73
2023-01-02T05:44:21.682Z,9.83
2023-01-02T05:46:49.962Z,9.50
2023-01-02T05:49:18.348Z,9.70
2023-01-02T05:51:46.662Z,9.50
2023-01-02T05:54:14.989Z,10.20
2023-01-02T05:56:43.682Z,9.37
2023-01-02T05:59:16.511Z,9.50
2023-01-02T06:01:46.917Z,9.97
2023-01-02T06:04:19.627Z,9.73
2023-01-02T06:06:49.617Z,9.83
2023-01-02T06:09:19.190Z,9.87
2023-01-02T06:11:47.410Z,9.77
2023-01-02T06:14:17.091Z,10.37
2023-01-02T06:16:45.474Z,9.80
2023-01-02T06:19:13.765Z,9.67
2023-01-02T06:21:42.144Z,9.70
2023-01-02T06:24:10.881Z,9.60
2023-01-02T06:26:39.184Z,10.07
2023-01-02T06:29:07.529Z,9.77
2023-01-02T06:31:39.684Z,10.00
2023-01-02T06:34:08.473Z,9.50
2023-01-02T06:36:36.812Z,9.77
2023-01-02T06:39:06.292Z,10.13
2023-01-02T06:41:34.648Z,9.90
2023-01-02T06:44:02.963Z,9.93
2023-01-02T06:46:31.231Z,10.10
2023-01-02T06:49:00.963Z,9.97
2023-01-02T06:51:29.277Z,9.97
2023-01-02T06:53:57.890Z,9.90
2023-01-02T06:56:26.217Z,10.07
2023-01-02T06:59:15.112Z,10.40
2023-01-02T07:01:43.742Z,9.90
2023-01-02T07:04:17.117Z,10.13
2023-01-02T07:06:45.469Z,10.67
2023-01-02T07:09:13.780Z,9.97
2023-01-02T07:11:42.077Z,10.10
2023-01-02T07:14:10.419Z,10.13
2023-01-02T07:16:38.757Z,9.93
2023-01-02T07:19:07.122Z,10.00
2023-01-02T07:21:36.867Z,10.03
2023-01-02T07:24:05.808Z,10.03
2023-01-02T07:26:34.071Z,10.30
2023-01-02T07:29:02.429Z,10.13
2023-01-02T07:31:30.816Z,10.10
2023-01-02T07:33:59.956Z,10.17
2023-01-02T07:36:28.343Z,10.33
2023-01-02T07:38:58.375Z,10.43
2023-01-02T07:41:27.383Z,10.30
2023-01-02T07:43:57.652Z,10.00
2023-01-02T07:46:26.624Z,9.70
2023-01-02T07:48:55.061Z,9.97
2023-01-02T07:51:27.458Z,10.20
2023-01-02T07:53:58.404Z,10.10
2023-01-02T07:56:27.500Z,10.00
2023-01-02T07:58:55.869Z,10.47
2023-01-02T08:01:24.482Z,9.97
2023-01-02T08:03:52.988Z,10.10
2023-01-02T08:06:21.671Z,10.03
2023-01-02T08:08:50.199Z,10.23
2023-01-02T08:11:22.295Z,9.77
2023-01-02T08:13:51.289Z,10.33
2023-01-02T08:16:22.360Z,10.13
2023-01-02T08:18:55.582Z,10.27
2023-01-02T08:21:24.915Z,10.10
2023-01-02T08:23:53.258Z,10.00
2023-01-02T08:26:23.378Z,10.33
2023-01-02T08:28:51.826Z,10.10
2023-01-02T08:31:22.785Z,10.27
2023-01-02T08:33:51.090Z,10.20
2023-01-02T08:36:20.085Z,9.67
2023-01-02T08:38:48.657Z,9.93
2023-01-02T08:41:18.945Z,9.80
2023-01-02T08:43:48.693Z,10.30
2023-01-02T08:46:16.952Z,10.20
2023-01-02T08:48:45.308Z,10.23
2023-01-02T08:51:13.655Z,10.17
2023-01-02T08:53:41.988Z,10.53
2023-01-02T08:56:19.762Z,10.20
2023-01-02T08:58:54.065Z,10.40
2023-01-02T09:01:23.469Z,10.20
2023-01-02T09:03:53.093Z,10.43
2023-01-02T09:06:22.688Z,10.13
2023-01-02T09:08:52.451Z,10.17
2023-01-02T09:11:24.091Z,10.17
2023-01-02T09:13:54.384Z,13.03
2023-01-02T09:16:23.333Z,11.60
2023-01-02T09:18:52.165Z,9.83
2023-01-02T09:21:20.583Z,10.17
2023-01-02T09:23:49.152Z,9.40
2023-01-02T09:26:17.707Z,9.77
2023-01-02T09:28:46.390Z,10.13
2023-01-02T09:31:18.507Z,9.97
2023-01-02T09:33:48.585Z,10.13
2023-01-02T09:36:19.295Z,10.23
2023-01-02T09:38:53.370Z,9.90
2023-01-02T09:41:34.096Z,10.07
2023-01-02T09:44:07.686Z,9.87
2023-01-02T09:46:45.516Z,9.87
2023-01-02T09:49:18.277Z,10.17
2023-01-02T09:51:47.387Z,9.83
2023-01-02T09:54:25.177Z,9.70
2023-01-02T09:57:06.029Z,9.80
2023-01-02T09:59:42.805Z,10.03
2023-01-02T10:02:29.133Z,9.73
2023-01-02T10:05:25.274Z,10.10
2023-01-02T10:08:02.159Z,10.27
2023-01-02T10:10:37.735Z,9.77
2023-01-02T10:13:14.616Z,9.70
2023-01-02T10:15:46.866Z,10.20
2023-01-02T10:18:26.024Z,9.80
2023-01-02T10:20:58.449Z,10.03
2023-01-02T10:23:32.769Z,9.63
2023-01-02T10:26:06.150Z,12.83
2023-01-02T10:28:42.685Z,9.93
2023-01-02T10:31:18.609Z,10.50
2023-01-02T10:33:54.082Z,10.03
2023-01-02T10:36:27.551Z,9.87
2023-01-02T10:39:00.299Z,9.90
2023-01-02T10:41:29.633Z,9.50
2023-01-02T10:44:01.651Z,9.90
2023-01-02T10:46:33.780Z,9.80
2023-01-02T10:49:03.868Z,10.07
2023-01-02T10:51:32.469Z,10.03
2023-01-02T10:54:03.115Z,9.87
2023-01-02T10:56:34.214Z,9.60
2023-01-02T10:59:03.477Z,10.23
2023-01-02T11:01:32.208Z,9.80
2023-01-02T11:04:22.217Z,9.87
2023-01-02T11:06:58.315Z,9.60
2023-01-02T11:09:29.384Z,9.87
2023-01-02T11:12:10.071Z,9.80
2023-01-02T11:14:39.103Z,9.50
2023-01-02T11:17:13.228Z,9.97
2023-01-02T11:19:45.556Z,9.47
2023-01-02T11:22:16.993Z,9.70
2023-01-02T11:25:00.719Z,9.53
2023-01-02T11:27:34.593Z,9.80
2023-01-02T11:30:04.685Z,9.60
2023-01-02T11:32:40.802Z,9.77
2023-01-02T11:35:38.180Z,9.80
2023-01-02T11:38:14.429Z,9.87
2023-01-02T11:40:58.327Z,9.80
2023-01-02T11:43:49.284Z,11.17
2023-01-02T11:46:31.194Z,9.90
2023-01-02T11:49:05.679Z,9.63
2023-01-02T11:51:39.780Z,9.23
2023-01-02T11:54:15.775Z,9.40
2023-01-02T11:56:46.603Z,11.23
2023-01-02T11:59:22.441Z,9.77
2023-01-02T12:01:58.060Z,9.87
2023-01-02T12:04:26.998Z,9.77
2023-01-02T12:07:16.202Z,9.20
2023-01-02T12:09:55.488Z,9.73
2023-01-02T12:12:43.670Z,9.70
2023-01-02T12:15:42.372Z,9.73
2023-01-02T12:18:28.321Z,9.20
2023-01-02T12:21:06.539Z,9.50
2023-01-02T12:24:01.596Z,9.40
2023-01-02T12:26:38.106Z,9.57
2023-01-02T12:29:48.281Z,9.67
2023-01-02T12:32:54.977Z,9.50
2023-01-02T12:35:41.639Z,9.67
2023-01-02T12:38:12.474Z,9.73
2023-01-02T12:40:55.834Z,9.57
2023-01-02T12:43:49.766Z,9.40
2023-01-02T12:46:31.653Z,11.20
2023-01-02T12:49:25.684Z,9.70
2023-01-02T12:52:02.881Z,9.57
2023-01-02T12:55:03.264Z,9.30
2023-01-02T12:57:42.669Z,9.70
2023-01-02T13:00:54.242Z,9.60
2023-01-02T13:03:50.088Z,10.17
2023-01-02T13:06:43.453Z,9.80
2023-01-02T13:09:22.261Z,9.50
2023-01-02T13:11:59.899Z,9.80
2023-01-02T13:14:38.299Z,9.50
2023-01-02T13:17:38.003Z,9.93
2023-01-02T13:20:19.786Z,9.80
2023-01-02T13:22:55.735Z,9.73
2023-01-02T13:25:26.005Z,9.77
2023-01-02T13:27:56.567Z,9.73
2023-01-02T13:30:46.317Z,10.33
2023-01-02T13:33:33.143Z,10.00
2023-01-02T13:36:04.919Z,9.73
2023-01-02T13:38:37.385Z,10.13
2023-01-02T13:41:05.831Z,10.13
2023-01-02T13:43:35.169Z,9.80
2023-01-02T13:46:05.152Z,9.40
2023-01-02T13:48:39.820Z,10.00
2023-01-02T13:51:16.162Z,10.30
2023-01-02T13:53:46.962Z,10.33
2023-01-02T13:56:17.765Z,13.33
2023-01-02T13:58:50.260Z,9.67
2023-01-02T14:01:57.332Z,9.93
2023-01-02T14:04:41.018Z,9.80
2023-01-02T14:07:48.780Z,10.37
2023-01-02T14:10:36.769Z,9.57
2023-01-02T14:13:25.457Z,11.10
2023-01-02T14:20:26.923Z,10.53
2023-01-02T14:23:00.466Z,14.00
2023-01-02T14:25:29.934Z,9.77
2023-01-02T14:28:01.589Z,12.60
2023-01-02T14:30:36.466Z,9.77
2023-01-02T14:33:06.581Z,9.67
2023-01-02T14:35:40.269Z,9.40
2023-01-02T14:38:17.130Z,9.30
2023-01-02T14:40:46.967Z,10.03
2023-01-02T14:43:31.089Z,9.90
2023-01-02T14:46:08.313Z,10.10
2023-01-02T14:48:44.089Z,10.37
2023-01-02T14:51:22.069Z,9.67
2023-01-02T14:53:55.717Z,9.60
2023-01-02T14:56:29.055Z,9.77
2023-01-02T14:58:59.520Z,9.63
2023-01-02T15:01:43.056Z,9.67
2023-01-02T15:04:21.875Z,9.90
2023-01-02T15:06:59.235Z,10.77
2023-01-02T15:09:33.430Z,9.87
2023-01-02T15:12:21.670Z,10.07
2023-01-02T15:14:49.937Z,9.63
2023-01-02T15:17:21.611Z,9.40
2023-01-02T15:19:50.487Z,9.87
2023-01-02T15:22:24.353Z,11.33
2023-01-02T15:24:55.052Z,9.97
2023-01-02T15:27:26.249Z,13.03
2023-01-02T15:29:58.180Z,9.70
2023-01-02T15:32:28.457Z,9.20
2023-01-02T15:35:10.951Z,11.03
2023-01-02T15:37:45.419Z,10.03
2023-01-02T15:40:17.272Z,9.23
2023-01-02T15:43:04.308Z,9.50
2023-01-02T15:45:33.219Z,9.83
2023-01-02T15:48:01.876Z,9.70
2023-01-02T15:50:33.071Z,10.00
2023-01-02T15:53:06.539Z,9.83
2023-01-02T15:55:38.901Z,10.23
2023-01-02T15:58:29.113Z,9.70
2023-01-02T16:01:18.815Z,9.47
2023-01-02T16:04:00.512Z,9.80
2023-01-02T16:06:35.133Z,9.63
2023-01-02T16:09:08.303Z,10.60
2023-01-02T16:11:45.782Z,10.13
2023-01-02T16:14:22.363Z,10.10
2023-01-02T16:16:57.088Z,10.03
2023-01-02T16:19:33.107Z,12.00
2023-01-02T16:22:08.404Z,10.20
2023-01-02T16:24:45.137Z,10.80
2023-01-02T16:27:15.483Z,10.30
2023-01-02T16:29:44.778Z,10.00
2023-01-02T16:32:26.974Z,9.97
2023-01-02T16:35:21.522Z,10.33
2023-01-02T16:37:57.656Z,11.90
2023-01-02T16:40:59.752Z,12.27
2023-01-02T16:43:34.379Z,10.70
2023-01-02T16:46:05.635Z,10.77
2023-01-02T16:48:39.389Z,10.50
2023-01-02T16:51:07.808Z,10.33
2023-01-02T16:53:36.203Z,14.60
2023-01-02T16:56:06.659Z,10.30
2023-01-02T16:58:35.129Z,9.90
2023-01-02T17:01:03.877Z,9.70
2023-01-02T17:03:32.529Z,10.43
2023-01-02T17:06:04.413Z,10.03
2023-01-02T17:08:33.518Z,9.80
2023-01-02T17:11:02.159Z,10.40
2023-01-02T17:13:31.832Z,10.30
2023-01-02T17:16:00.564Z,10.27
2023-01-02T17:18:28.976Z,10.33
2023-01-02T17:20:57.275Z,10.33
2023-01-02T17:23:25.587Z,9.80
2023-01-02T17:25:53.925Z,10.30
2023-01-02T17:28:22.186Z,10.70
2023-01-02T17:30:51.988Z,10.93
2023-01-02T17:33:20.900Z,10.37
2023-01-02T17:35:51.173Z,10.60
2023-01-02T17:38:19.794Z,10.30
2023-01-02T17:40:48.682Z,9.80
2023-01-02T17:43:17.439Z,10.00
2023-01-02T17:45:45.782Z,10.13
2023-01-02T17:48:21.717Z,9.97
2023-01-02T17:50:52.809Z,10.27
2023-01-02T17:53:21.254Z,9.83
2023-01-02T17:56:21.467Z,10.43
2023-01-02T17:58:42.470Z,10.63
2023-01-02T18:01:16.859Z,9.93
2023-01-02T18:03:47.316Z,11.53
2023-01-02T18:06:16.428Z,9.83
2023-01-02T18:08:45.336Z,9.90
2023-01-02T18:11:16.204Z,10.00
2023-01-02T18:13:48.460Z,10.20
2023-01-02T18:16:21.118Z,10.03
2023-01-02T18:18:53.351Z,10.27
2023-01-02T18:21:24.184Z,10.10
2023-01-02T18:23:57.659Z,9.90
2023-01-02T18:26:26.956Z,9.63
2023-01-02T18:29:02.832Z,10.47
2023-01-02T18:31:40.971Z,10.17
2023-01-02T18:37:21.539Z,11.10
2023-01-02T18:39:50.938Z,10.43
2023-01-02T18:42:21.991Z,10.20
2023-01-02T18:44:52.011Z,10.20
2023-01-02T18:47:27.666Z,11.10
2023-01-02T18:50:03.339Z,10.20
2023-01-02T18:52:36.361Z,10.07
2023-01-02T18:55:24.922Z,10.13
2023-01-02T18:57:58.025Z,10.50
2023-01-02T19:00:29.310Z,10.27
2023-01-02T19:03:01.647Z,9.80
2023-01-02T19:05:34.114Z,10.37
2023-01-02T19:08:20.282Z,10.40
2023-01-02T19:10:51.381Z,10.50
2023-01-02T19:13:22.003Z,10.23
2023-01-02T19:15:59.216Z,10.07
2023-01-02T19:18:36.824Z,12.40
2023-01-02T19:21:18.588Z,10.50
2023-01-02T19:23:54.007Z,10.33
2023-01-02T19:26:32.545Z,10.30
2023-01-02T19:29:07.526Z,9.80
2023-01-02T19:31:43.494Z,10.70
2023-01-02T19:34:39.842Z,10.50
2023-01-02T19:37:31.122Z,10.57
2023-01-02T19:40:02.151Z,10.90
2023-01-02T19:42:32.311Z,11.60
2023-01-02T19:45:04.058Z,29.93
2023-01-02T19:47:35.449Z,28.67
2023-01-02T19:50:06.733Z,18.40
2023-01-02T19:52:36.518Z,39.90
2023-01-02T19:55:07.109Z,67.27
2023-01-02T19:57:35.853Z,72.87
2023-01-02T20:00:07.221Z,60.13
2023-01-02T20:02:42.718Z,62.20
2023-01-02T20:05:13.627Z,54.57
2023-01-02T20:07:48.536Z,50.40
2023-01-02T20:10:17.643Z,57.80
2023-01-02T20:12:46.169Z,33.30
2023-01-02T20:15:17.612Z,34.83
2023-01-02T20:17:46.882Z,25.73
2023-01-02T20:20:18.929Z,20.40
2023-01-02T20:22:51.767Z,23.37
2023-01-02T20:25:24.383Z,12.43
2023-01-02T20:27:53.955Z,11.10
2023-01-02T20:30:25.130Z,10.53
2023-01-02T20:32:54.235Z,11.30
2023-01-02T20:35:22.723Z,10.23
2023-01-02T20:37:52.589Z,11.90
2023-01-02T20:40:21.211Z,9.53
2023-01-02T20:42:50.032Z,9.30
2023-01-02T20:45:18.939Z,9.57
2023-01-02T20:47:47.513Z,9.33
2023-01-02T20:50:16.474Z,9.10
2023-01-02T20:52:44.795Z,9.60
2023-01-02T20:55:15.296Z,9.43
2023-01-02T20:57:45.975Z,9.50
2023-01-02T21:00:19.406Z,9.60
2023-01-02T21:02:48.410Z,9.97
2023-01-02T21:05:17.586Z,9.50
2023-01-02T21:07:46.207Z,9.57
2023-01-02T21:10:16.113Z,9.67
2023-01-02T21:13:02.515Z,9.70
2023-01-02T21:15:45.119Z,9.50
2023-01-02T21:18:17.167Z,9.40
2023-01-02T21:20:47.980Z,9.80
2023-01-02T21:23:17.467Z,9.53
2023-01-02T21:25:48.380Z,11.53
2023-01-02T21:28:18.660Z,9.90
2023-01-02T21:30:47.942Z,9.87
2023-01-02T21:33:25.008Z,9.60
2023-01-02T21:35:56.057Z,9.87
2023-01-02T21:38:26.579Z,9.60
2023-01-02T21:41:18.482Z,9.73
2023-01-02T21:43:47.337Z,10.40
2023-01-02T21:46:16.232Z,10.30
2023-01-02T21:48:44.679Z,9.93
2023-01-02T21:51:14.833Z,9.73
2023-01-02T21:53:43.861Z,9.73
2023-01-02T21:56:14.090Z,10.37
2023-01-02T21:58:42.915Z,10.40
2023-01-02T22:01:11.262Z,10.20
2023-01-02T22:03:40.020Z,9.70
2023-01-02T22:06:08.668Z,9.77
2023-01-02T22:08:36.948Z,10.20
2023-01-02T22:11:22.840Z,9.90
2023-01-02T22:13:52.887Z,9.50
2023-01-02T22:16:21.390Z,10.00
2023-01-02T22:18:50.713Z,10.00
2023-01-02T22:21:19.263Z,9.90
2023-01-02T22:23:47.593Z,9.60
2023-01-02T22:26:15.909Z,10.07
2023-01-02T22:28:44.304Z,9.63
2023-01-02T22:31:14.043Z,9.77
2023-01-02T22:33:42.913Z,10.43
2023-01-02T22:36:11.328Z,10.10
2023-01-02T22:38:55.051Z,9.73
2023-01-02T22:41:30.989Z,9.67
2023-01-02T22:44:01.110Z,10.13
2023-01-02T22:46:37.248Z,9.80
2023-01-02T22:49:06.187Z,9.70
2023-01-02T22:52:05.256Z,9.70
2023-01-02T22:54:25.257Z,9.87
2023-01-02T22:56:53.715Z,10.03
2023-01-02T22:59:21.993Z,9.80
2023-01-02T23:01:51.790Z,9.73
2023-01-02T23:04:23.649Z,10.00
2023-01-02T23:07:22.672Z,10.00
2023-01-02T23:09:41.953Z,9.60
2023-01-02T23:12:10.562Z,9.53
2023-01-02T23:14:39.157Z,9.70
2023-01-02T23:17:28.449Z,10.27
2023-01-02T23:19:57.043Z,9.93
2023-01-02T23:22:27.120Z,9.77
2023-01-02T23:24:56.174Z,10.20
2023-01-02T23:27:24.656Z,9.77
2023-01-02T23:29:53.203Z,11.23
2023-01-02T23:32:23.647Z,10.33
2023-01-02T23:34:52.265Z,9.90
2023-01-02T23:37:20.958Z,9.60
2023-01-02T23:39:49.296Z,10.30
2023-01-02T23:42:17.742Z,9.77
2023-01-02T23:44:46.149Z,10.53
2023-01-02T23:47:19.066Z,9.73
2023-01-02T23:49:49.619Z,9.87
2023-01-02T23:52:18.539Z,9.77
2023-01-02T23:54:46.862Z,9.70
2023-01-02T23:57:15.265Z,9.90
2023-01-02T23:59:43.779Z,9.77
